sensor_id;sensor_type;location;lat;lon;timestamp;P1;durP1;ratioP1;P2;durP2;ratioP2
21258;SDS011;10787;53.364;-1.480;2023-11-21T00:02:19;1.63;;;0.90;;
21258;SDS011;10787;53.364;-1.480;2023-11-21T00:05:03;1.07;;;0.80;;
21258;SDS011;10787;53.364;-1.480;2023-11-21T00:07:48;1.53;;;0.80;;
21258;SDS011;10787;53.364;-1.480;2023-11-21T00:10:33;2.10;;;0.90;;
21258;SDS011;10787;53.364;-1.480;2023-11-21T00:13:18;1.63;;;0.80;;
21258;SDS011;10787;53.364;-1.480;2023-11-21T00:16:02;1.73;;;0.80;;
21258;SDS011;10787;53.364;-1.480;2023-11-21T00:18:47;1.10;;;0.70;;
21258;SDS011;10787;53.364;-1.480;2023-11-21T00:21:31;1.57;;;0.77;;
21258;SDS011;10787;53.364;-1.480;2023-11-21T00:24:15;0.93;;;0.60;;
21258;SDS011;10787;53.364;-1.480;2023-11-21T00:26:59;2.80;;;0.70;;
21258;SDS011;10787;53.364;-1.480;2023-11-21T00:29:44;2.20;;;0.87;;
21258;SDS011;10787;53.364;-1.480;2023-11-21T00:32:28;1.17;;;0.70;;
21258;SDS011;10787;53.364;-1.480;2023-11-21T00:35:12;2.43;;;0.73;;
21258;SDS011;10787;53.364;-1.480;2023-11-21T00:37:56;1.13;;;0.60;;
21258;SDS011;10787;53.364;-1.480;2023-11-21T00:40:41;1.50;;;0.63;;
21258;SDS011;10787;53.364;-1.480;2023-11-21T00:43:25;1.50;;;0.70;;
21258;SDS011;10787;53.364;-1.480;2023-11-21T00:46:10;0.90;;;0.70;;
21258;SDS011;10787;53.364;-1.480;2023-11-21T00:48:54;1.27;;;0.60;;
21258;SDS011;10787;53.364;-1.480;2023-11-21T00:51:39;1.43;;;0.60;;
21258;SDS011;10787;53.364;-1.480;2023-11-21T00:54:23;2.40;;;0.70;;
21258;SDS011;10787;53.364;-1.480;2023-11-21T00:57:07;1.50;;;0.70;;
21258;SDS011;10787;53.364;-1.480;2023-11-21T00:59:52;2.27;;;0.70;;
21258;SDS011;10787;53.364;-1.480;2023-11-21T01:02:36;1.90;;;0.80;;
21258;SDS011;10787;53.364;-1.480;2023-11-21T01:05:20;3.23;;;0.60;;
21258;SDS011;10787;53.364;-1.480;2023-11-21T01:08:04;2.13;;;0.70;;
21258;SDS011;10787;53.364;-1.480;2023-11-21T01:10:49;1.23;;;0.70;;
21258;SDS011;10787;53.364;-1.480;2023-11-21T01:13:33;1.10;;;0.67;;
21258;SDS011;10787;53.364;-1.480;2023-11-21T01:16:19;2.07;;;0.70;;
21258;SDS011;10787;53.364;-1.480;2023-11-21T01:19:03;2.10;;;0.70;;
21258;SDS011;10787;53.364;-1.480;2023-11-21T01:21:48;2.67;;;0.80;;
21258;SDS011;10787;53.364;-1.480;2023-11-21T01:24:32;1.90;;;0.70;;
21258;SDS011;10787;53.364;-1.480;2023-11-21T01:27:16;3.07;;;0.80;;
21258;SDS011;10787;53.364;-1.480;2023-11-21T01:30:01;2.83;;;0.80;;
21258;SDS011;10787;53.364;-1.480;2023-11-21T01:32:46;3.33;;;0.70;;
21258;SDS011;10787;53.364;-1.480;2023-11-21T01:35:31;2.90;;;0.70;;
21258;SDS011;10787;53.364;-1.480;2023-11-21T01:38:15;2.23;;;0.60;;
21258;SDS011;10787;53.364;-1.480;2023-11-21T01:41:01;2.93;;;0.90;;
21258;SDS011;10787;53.364;-1.480;2023-11-21T01:43:45;2.93;;;0.73;;
21258;SDS011;10787;53.364;-1.480;2023-11-21T01:46:30;3.53;;;0.87;;
21258;SDS011;10787;53.364;-1.480;2023-11-21T01:49:14;3.13;;;0.83;;
21258;SDS011;10787;53.364;-1.480;2023-11-21T01:51:59;2.53;;;0.83;;
21258;SDS011;10787;53.364;-1.480;2023-11-21T01:54:45;2.87;;;0.70;;
21258;SDS011;10787;53.364;-1.480;2023-11-21T01:57:29;0.97;;;0.57;;
21258;SDS011;10787;53.364;-1.480;2023-11-21T02:00:14;3.57;;;0.70;;
21258;SDS011;10787;53.364;-1.480;2023-11-21T02:02:59;1.40;;;0.60;;
21258;SDS011;10787;53.364;-1.480;2023-11-21T02:05:43;2.40;;;0.60;;
21258;SDS011;10787;53.364;-1.480;2023-11-21T02:08:28;3.53;;;0.60;;
21258;SDS011;10787;53.364;-1.480;2023-11-21T02:11:12;3.63;;;0.90;;
21258;SDS011;10787;53.364;-1.480;2023-11-21T02:13:58;3.00;;;0.70;;
21258;SDS011;10787;53.364;-1.480;2023-11-21T02:16:43;2.17;;;0.60;;
21258;SDS011;10787;53.364;-1.480;2023-11-21T02:19:31;2.00;;;0.50;;
21258;SDS011;10787;53.364;-1.480;2023-11-21T02:22:15;0.83;;;0.50;;
21258;SDS011;10787;53.364;-1.480;2023-11-21T02:25:02;2.30;;;0.60;;
21258;SDS011;10787;53.364;-1.480;2023-11-21T02:27:47;0.97;;;0.40;;
21258;SDS011;10787;53.364;-1.480;2023-11-21T02:30:32;3.27;;;0.50;;
21258;SDS011;10787;53.364;-1.480;2023-11-21T02:33:17;2.33;;;0.50;;
21258;SDS011;10787;53.364;-1.480;2023-11-21T02:36:01;1.70;;;0.43;;
21258;SDS011;10787;53.364;-1.480;2023-11-21T02:38:46;1.93;;;0.43;;
21258;SDS011;10787;53.364;-1.480;2023-11-21T02:41:30;1.20;;;0.30;;
21258;SDS011;10787;53.364;-1.480;2023-11-21T02:44:14;2.17;;;0.50;;
21258;SDS011;10787;53.364;-1.480;2023-11-21T02:46:58;1.13;;;0.37;;
21258;SDS011;10787;53.364;-1.480;2023-11-21T02:49:43;2.03;;;0.53;;
21258;SDS011;10787;53.364;-1.480;2023-11-21T02:52:28;1.17;;;0.40;;
21258;SDS011;10787;53.364;-1.480;2023-11-21T02:55:12;1.00;;;0.50;;
21258;SDS011;10787;53.364;-1.480;2023-11-21T02:57:56;2.80;;;0.60;;
21258;SDS011;10787;53.364;-1.480;2023-11-21T03:00:41;1.10;;;0.50;;
21258;SDS011;10787;53.364;-1.480;2023-11-21T03:03:26;1.60;;;0.40;;
21258;SDS011;10787;53.364;-1.480;2023-11-21T03:06:10;0.90;;;0.40;;
21258;SDS011;10787;53.364;-1.480;2023-11-21T03:08:54;0.77;;;0.33;;
21258;SDS011;10787;53.364;-1.480;2023-11-21T03:11:39;1.37;;;0.50;;
21258;SDS011;10787;53.364;-1.480;2023-11-21T03:14:23;0.60;;;0.50;;
21258;SDS011;10787;53.364;-1.480;2023-11-21T03:17:08;2.67;;;0.50;;
21258;SDS011;10787;53.364;-1.480;2023-11-21T03:19:52;1.07;;;0.40;;
21258;SDS011;10787;53.364;-1.480;2023-11-21T03:22:37;1.13;;;0.50;;
21258;SDS011;10787;53.364;-1.480;2023-11-21T03:25:22;0.77;;;0.43;;
21258;SDS011;10787;53.364;-1.480;2023-11-21T03:28:07;2.10;;;0.40;;
21258;SDS011;10787;53.364;-1.480;2023-11-21T03:30:52;1.57;;;0.53;;
21258;SDS011;10787;53.364;-1.480;2023-11-21T03:33:36;2.10;;;0.50;;
21258;SDS011;10787;53.364;-1.480;2023-11-21T03:36:20;2.10;;;0.47;;
21258;SDS011;10787;53.364;-1.480;2023-11-21T03:39:04;0.70;;;0.40;;
21258;SDS011;10787;53.364;-1.480;2023-11-21T03:41:48;0.90;;;0.50;;
21258;SDS011;10787;53.364;-1.480;2023-11-21T03:44:33;2.00;;;0.40;;
21258;SDS011;10787;53.364;-1.480;2023-11-21T03:47:17;0.67;;;0.30;;
21258;SDS011;10787;53.364;-1.480;2023-11-21T03:50:03;0.97;;;0.30;;
21258;SDS011;10787;53.364;-1.480;2023-11-21T03:52:47;0.67;;;0.30;;
21258;SDS011;10787;53.364;-1.480;2023-11-21T03:55:31;0.70;;;0.30;;
21258;SDS011;10787;53.364;-1.480;2023-11-21T03:58:15;1.00;;;0.30;;
21258;SDS011;10787;53.364;-1.480;2023-11-21T04:00:59;0.60;;;0.20;;
21258;SDS011;10787;53.364;-1.480;2023-11-21T04:03:43;0.97;;;0.30;;
21258;SDS011;10787;53.364;-1.480;2023-11-21T04:06:27;0.57;;;0.20;;
21258;SDS011;10787;53.364;-1.480;2023-11-21T04:09:11;0.57;;;0.30;;
21258;SDS011;10787;53.364;-1.480;2023-11-21T04:11:56;1.10;;;0.40;;
21258;SDS011;10787;53.364;-1.480;2023-11-21T04:14:40;0.67;;;0.23;;
21258;SDS011;10787;53.364;-1.480;2023-11-21T04:17:24;0.43;;;0.30;;
21258;SDS011;10787;53.364;-1.480;2023-11-21T04:20:08;0.20;;;0.20;;
21258;SDS011;10787;53.364;-1.480;2023-11-21T04:22:53;0.20;;;0.20;;
21258;SDS011;10787;53.364;-1.480;2023-11-21T04:25:37;1.23;;;0.30;;
21258;SDS011;10787;53.364;-1.480;2023-11-21T04:28:21;0.43;;;0.20;;
21258;SDS011;10787;53.364;-1.480;2023-11-21T04:31:06;0.63;;;0.17;;
21258;SDS011;10787;53.364;-1.480;2023-11-21T04:33:50;0.67;;;0.20;;
21258;SDS011;10787;53.364;-1.480;2023-11-21T04:36:34;1.23;;;0.33;;
21258;SDS011;10787;53.364;-1.480;2023-11-21T04:39:18;0.40;;;0.30;;
21258;SDS011;10787;53.364;-1.480;2023-11-21T04:42:04;0.60;;;0.30;;
21258;SDS011;10787;53.364;-1.480;2023-11-21T04:44:48;0.60;;;0.30;;
21258;SDS011;10787;53.364;-1.480;2023-11-21T04:47:33;0.37;;;0.30;;
21258;SDS011;10787;53.364;-1.480;2023-11-21T04:50:18;0.70;;;0.30;;
21258;SDS011;10787;53.364;-1.480;2023-11-21T04:53:03;0.87;;;0.40;;
21258;SDS011;10787;53.364;-1.480;2023-11-21T04:55:47;0.80;;;0.33;;
21258;SDS011;10787;53.364;-1.480;2023-11-21T04:58:32;0.40;;;0.30;;
21258;SDS011;10787;53.364;-1.480;2023-11-21T05:01:16;0.40;;;0.30;;
21258;SDS011;10787;53.364;-1.480;2023-11-21T05:04:01;2.00;;;0.50;;
21258;SDS011;10787;53.364;-1.480;2023-11-21T05:06:46;1.30;;;0.40;;
21258;SDS011;10787;53.364;-1.480;2023-11-21T05:09:31;1.23;;;0.40;;
21258;SDS011;10787;53.364;-1.480;2023-11-21T05:12:16;0.80;;;0.50;;
21258;SDS011;10787;53.364;-1.480;2023-11-21T05:15:00;2.70;;;0.50;;
21258;SDS011;10787;53.364;-1.480;2023-11-21T05:17:44;0.83;;;0.50;;
21258;SDS011;10787;53.364;-1.480;2023-11-21T05:20:29;1.60;;;0.80;;
21258;SDS011;10787;53.364;-1.480;2023-11-21T05:23:13;1.43;;;0.50;;
21258;SDS011;10787;53.364;-1.480;2023-11-21T05:25:58;1.07;;;0.57;;
21258;SDS011;10787;53.364;-1.480;2023-11-21T05:28:42;1.17;;;0.60;;
21258;SDS011;10787;53.364;-1.480;2023-11-21T05:31:26;3.30;;;0.97;;
21258;SDS011;10787;53.364;-1.480;2023-11-21T05:34:10;2.03;;;0.70;;
21258;SDS011;10787;53.364;-1.480;2023-11-21T05:36:55;1.07;;;0.60;;
21258;SDS011;10787;53.364;-1.480;2023-11-21T05:39:41;0.80;;;0.60;;
21258;SDS011;10787;53.364;-1.480;2023-11-21T05:42:25;1.10;;;0.60;;
21258;SDS011;10787;53.364;-1.480;2023-11-21T05:45:10;1.00;;;0.70;;
21258;SDS011;10787;53.364;-1.480;2023-11-21T05:47:55;1.60;;;0.70;;
21258;SDS011;10787;53.364;-1.480;2023-11-21T05:50:40;3.10;;;0.80;;
21258;SDS011;10787;53.364;-1.480;2023-11-21T05:53:24;3.60;;;0.90;;
21258;SDS011;10787;53.364;-1.480;2023-11-21T05:56:09;2.20;;;1.07;;
21258;SDS011;10787;53.364;-1.480;2023-11-21T05:58:53;2.63;;;0.90;;
21258;SDS011;10787;53.364;-1.480;2023-11-21T06:01:37;3.10;;;0.93;;
21258;SDS011;10787;53.364;-1.480;2023-11-21T06:04:22;3.03;;;1.03;;
21258;SDS011;10787;53.364;-1.480;2023-11-21T06:07:08;1.63;;;0.97;;
21258;SDS011;10787;53.364;-1.480;2023-11-21T06:09:53;1.20;;;0.93;;
21258;SDS011;10787;53.364;-1.480;2023-11-21T06:12:37;1.40;;;0.90;;
21258;SDS011;10787;53.364;-1.480;2023-11-21T06:15:23;1.73;;;0.90;;
21258;SDS011;10787;53.364;-1.480;2023-11-21T06:18:07;1.40;;;0.80;;
21258;SDS011;10787;53.364;-1.480;2023-11-21T06:20:53;2.53;;;0.70;;
21258;SDS011;10787;53.364;-1.480;2023-11-21T06:23:38;0.83;;;0.77;;
21258;SDS011;10787;53.364;-1.480;2023-11-21T06:26:22;2.07;;;0.93;;
21258;SDS011;10787;53.364;-1.480;2023-11-21T06:29:08;2.80;;;1.10;;
21258;SDS011;10787;53.364;-1.480;2023-11-21T06:31:52;1.93;;;1.00;;
21258;SDS011;10787;53.364;-1.480;2023-11-21T06:34:38;2.20;;;1.00;;
21258;SDS011;10787;53.364;-1.480;2023-11-21T06:37:22;1.60;;;0.80;;
21258;SDS011;10787;53.364;-1.480;2023-11-21T06:40:07;3.03;;;1.30;;
21258;SDS011;10787;53.364;-1.480;2023-11-21T06:42:53;2.20;;;1.07;;
21258;SDS011;10787;53.364;-1.480;2023-11-21T06:45:37;4.60;;;1.00;;
21258;SDS011;10787;53.364;-1.480;2023-11-21T06:48:22;6.17;;;1.10;;
21258;SDS011;10787;53.364;-1.480;2023-11-21T06:51:07;3.57;;;1.10;;
21258;SDS011;10787;53.364;-1.480;2023-11-21T06:53:51;2.43;;;0.90;;
21258;SDS011;10787;53.364;-1.480;2023-11-21T06:56:36;2.13;;;1.10;;
21258;SDS011;10787;53.364;-1.480;2023-11-21T06:59:22;3.37;;;1.20;;
21258;SDS011;10787;53.364;-1.480;2023-11-21T07:02:07;1.57;;;0.87;;
21258;SDS011;10787;53.364;-1.480;2023-11-21T07:04:52;3.33;;;1.20;;
21258;SDS011;10787;53.364;-1.480;2023-11-21T07:07:37;4.13;;;1.30;;
21258;SDS011;10787;53.364;-1.480;2023-11-21T07:10:22;5.50;;;1.37;;
21258;SDS011;10787;53.364;-1.480;2023-11-21T07:13:07;3.20;;;1.03;;
21258;SDS011;10787;53.364;-1.480;2023-11-21T07:15:57;2.87;;;1.30;;
21258;SDS011;10787;53.364;-1.480;2023-11-21T07:18:43;4.47;;;1.33;;
21258;SDS011;10787;53.364;-1.480;2023-11-21T07:21:27;3.53;;;1.40;;
21258;SDS011;10787;53.364;-1.480;2023-11-21T07:24:11;2.53;;;1.40;;
21258;SDS011;10787;53.364;-1.480;2023-11-21T07:26:55;3.20;;;1.37;;
21258;SDS011;10787;53.364;-1.480;2023-11-21T07:29:40;3.57;;;1.43;;
21258;SDS011;10787;53.364;-1.480;2023-11-21T07:32:24;3.63;;;1.50;;
21258;SDS011;10787;53.364;-1.480;2023-11-21T07:35:09;3.43;;;1.43;;
21258;SDS011;10787;53.364;-1.480;2023-11-21T07:37:53;4.50;;;1.50;;
21258;SDS011;10787;53.364;-1.480;2023-11-21T07:40:37;4.77;;;1.97;;
21258;SDS011;10787;53.364;-1.480;2023-11-21T07:43:22;3.70;;;1.70;;
21258;SDS011;10787;53.364;-1.480;2023-11-21T07:46:06;5.27;;;1.90;;
21258;SDS011;10787;53.364;-1.480;2023-11-21T07:48:51;7.30;;;1.93;;
21258;SDS011;10787;53.364;-1.480;2023-11-21T07:51:37;4.70;;;2.00;;
21258;SDS011;10787;53.364;-1.480;2023-11-21T07:54:21;5.20;;;1.90;;
21258;SDS011;10787;53.364;-1.480;2023-11-21T07:57:05;4.43;;;2.00;;
21258;SDS011;10787;53.364;-1.480;2023-11-21T07:59:49;5.27;;;2.00;;
21258;SDS011;10787;53.364;-1.480;2023-11-21T08:02:33;5.07;;;1.83;;
21258;SDS011;10787;53.364;-1.480;2023-11-21T08:05:18;4.80;;;2.00;;
21258;SDS011;10787;53.364;-1.480;2023-11-21T08:08:03;4.77;;;2.40;;
21258;SDS011;10787;53.364;-1.480;2023-11-21T08:10:47;6.07;;;2.23;;
21258;SDS011;10787;53.364;-1.480;2023-11-21T08:13:31;6.23;;;2.10;;
21258;SDS011;10787;53.364;-1.480;2023-11-21T08:16:16;8.13;;;2.47;;
21258;SDS011;10787;53.364;-1.480;2023-11-21T08:19:00;7.93;;;2.27;;
21258;SDS011;10787;53.364;-1.480;2023-11-21T08:21:46;8.00;;;2.43;;
21258;SDS011;10787;53.364;-1.480;2023-11-21T08:24:30;9.90;;;2.13;;
21258;SDS011;10787;53.364;-1.480;2023-11-21T08:27:14;8.37;;;2.30;;
21258;SDS011;10787;53.364;-1.480;2023-11-21T08:30:00;7.80;;;2.60;;
21258;SDS011;10787;53.364;-1.480;2023-11-21T08:32:46;12.67;;;2.73;;
21258;SDS011;10787;53.364;-1.480;2023-11-21T08:35:31;7.83;;;2.17;;
21258;SDS011;10787;53.364;-1.480;2023-11-21T08:38:14;8.80;;;2.60;;
21258;SDS011;10787;53.364;-1.480;2023-11-21T08:40:59;7.83;;;1.97;;
21258;SDS011;10787;53.364;-1.480;2023-11-21T08:43:44;12.07;;;2.60;;
21258;SDS011;10787;53.364;-1.480;2023-11-21T08:46:28;9.43;;;2.40;;
21258;SDS011;10787;53.364;-1.480;2023-11-21T08:49:12;18.20;;;3.23;;
21258;SDS011;10787;53.364;-1.480;2023-11-21T08:51:58;8.37;;;2.30;;
21258;SDS011;10787;53.364;-1.480;2023-11-21T08:54:43;8.37;;;2.77;;
21258;SDS011;10787;53.364;-1.480;2023-11-21T08:57:29;6.23;;;2.50;;
21258;SDS011;10787;53.364;-1.480;2023-11-21T09:00:13;8.37;;;2.50;;
21258;SDS011;10787;53.364;-1.480;2023-11-21T09:03:01;9.23;;;2.30;;
21258;SDS011;10787;53.364;-1.480;2023-11-21T09:05:46;11.67;;;2.83;;
21258;SDS011;10787;53.364;-1.480;2023-11-21T09:08:31;10.57;;;2.60;;
21258;SDS011;10787;53.364;-1.480;2023-11-21T09:11:15;10.07;;;2.83;;
21258;SDS011;10787;53.364;-1.480;2023-11-21T09:14:01;10.10;;;2.60;;
21258;SDS011;10787;53.364;-1.480;2023-11-21T09:16:45;7.43;;;2.83;;
21258;SDS011;10787;53.364;-1.480;2023-11-21T09:19:30;10.03;;;3.00;;
21258;SDS011;10787;53.364;-1.480;2023-11-21T09:22:14;7.47;;;2.70;;
21258;SDS011;10787;53.364;-1.480;2023-11-21T09:24:59;7.23;;;2.90;;
21258;SDS011;10787;53.364;-1.480;2023-11-21T09:27:43;10.67;;;2.80;;
21258;SDS011;10787;53.364;-1.480;2023-11-21T09:30:29;7.53;;;2.57;;
21258;SDS011;10787;53.364;-1.480;2023-11-21T09:33:14;6.43;;;2.20;;
21258;SDS011;10787;53.364;-1.480;2023-11-21T09:35:59;8.97;;;2.40;;
21258;SDS011;10787;53.364;-1.480;2023-11-21T09:38:43;6.20;;;2.30;;
21258;SDS011;10787;53.364;-1.480;2023-11-21T09:41:33;6.97;;;2.33;;
21258;SDS011;10787;53.364;-1.480;2023-11-21T09:48:03;9.10;;;2.33;;
21258;SDS011;10787;53.364;-1.480;2023-11-21T09:50:49;7.20;;;2.10;;
21258;SDS011;10787;53.364;-1.480;2023-11-21T09:53:34;9.57;;;2.43;;
21258;SDS011;10787;53.364;-1.480;2023-11-21T09:56:21;5.70;;;1.90;;
21258;SDS011;10787;53.364;-1.480;2023-11-21T09:59:07;6.90;;;2.10;;
21258;SDS011;10787;53.364;-1.480;2023-11-21T10:01:56;9.97;;;2.27;;
21258;SDS011;10787;53.364;-1.480;2023-11-21T10:04:42;8.97;;;2.10;;
21258;SDS011;10787;53.364;-1.480;2023-11-21T10:07:26;13.97;;;2.47;;
21258;SDS011;10787;53.364;-1.480;2023-11-21T10:10:12;7.30;;;1.90;;
21258;SDS011;10787;53.364;-1.480;2023-11-21T10:13:01;9.43;;;2.37;;
21258;SDS011;10787;53.364;-1.480;2023-11-21T10:15:51;8.47;;;1.80;;
21258;SDS011;10787;53.364;-1.480;2023-11-21T10:18:36;10.27;;;1.97;;
21258;SDS011;10787;53.364;-1.480;2023-11-21T10:21:23;6.90;;;2.03;;
21258;SDS011;10787;53.364;-1.480;2023-11-21T10:24:07;6.20;;;1.80;;
21258;SDS011;10787;53.364;-1.480;2023-11-21T10:26:52;6.27;;;1.50;;
21258;SDS011;10787;53.364;-1.480;2023-11-21T10:29:38;6.37;;;1.67;;
21258;SDS011;10787;53.364;-1.480;2023-11-21T10:32:27;7.27;;;1.93;;
21258;SDS011;10787;53.364;-1.480;2023-11-21T10:35:12;9.10;;;1.70;;
21258;SDS011;10787;53.364;-1.480;2023-11-21T10:38:00;5.57;;;1.60;;
21258;SDS011;10787;53.364;-1.480;2023-11-21T10:40:44;7.10;;;1.70;;
21258;SDS011;10787;53.364;-1.480;2023-11-21T10:43:30;6.97;;;1.70;;
21258;SDS011;10787;53.364;-1.480;2023-11-21T10:46:14;4.97;;;1.50;;
21258;SDS011;10787;53.364;-1.480;2023-11-21T10:48:59;11.07;;;2.30;;
21258;SDS011;10787;53.364;-1.480;2023-11-21T10:51:44;10.73;;;2.10;;
21258;SDS011;10787;53.364;-1.480;2023-11-21T10:54:30;10.27;;;2.03;;
21258;SDS011;10787;53.364;-1.480;2023-11-21T10:57:17;5.13;;;1.70;;
21258;SDS011;10787;53.364;-1.480;2023-11-21T11:00:05;9.03;;;2.13;;
21258;SDS011;10787;53.364;-1.480;2023-11-21T11:02:53;7.07;;;1.80;;
21258;SDS011;10787;53.364;-1.480;2023-11-21T11:05:39;18.13;;;2.50;;
21258;SDS011;10787;53.364;-1.480;2023-11-21T11:08:29;14.17;;;2.60;;
21258;SDS011;10787;53.364;-1.480;2023-11-21T11:11:14;7.97;;;2.03;;
21258;SDS011;10787;53.364;-1.480;2023-11-21T11:14:01;6.77;;;1.67;;
21258;SDS011;10787;53.364;-1.480;2023-11-21T11:16:49;7.67;;;1.90;;
21258;SDS011;10787;53.364;-1.480;2023-11-21T11:19:38;4.93;;;1.73;;
21258;SDS011;10787;53.364;-1.480;2023-11-21T11:22:30;9.40;;;2.20;;
21258;SDS011;10787;53.364;-1.480;2023-11-21T11:25:30;6.37;;;1.80;;
21258;SDS011;10787;53.364;-1.480;2023-11-21T11:28:47;8.87;;;2.03;;
21258;SDS011;10787;53.364;-1.480;2023-11-21T11:34:39;7.47;;;1.60;;
21258;SDS011;10787;53.364;-1.480;2023-11-21T11:37:30;8.23;;;2.20;;
21258;SDS011;10787;53.364;-1.480;2023-11-21T11:40:14;8.67;;;2.07;;
21258;SDS011;10787;53.364;-1.480;2023-11-21T11:43:00;8.03;;;2.00;;
21258;SDS011;10787;53.364;-1.480;2023-11-21T11:45:48;5.90;;;1.80;;
21258;SDS011;10787;53.364;-1.480;2023-11-21T11:48:38;4.37;;;1.67;;
21258;SDS011;10787;53.364;-1.480;2023-11-21T11:51:23;6.23;;;1.90;;
21258;SDS011;10787;53.364;-1.480;2023-11-21T11:54:07;7.73;;;2.00;;
21258;SDS011;10787;53.364;-1.480;2023-11-21T11:56:52;5.20;;;1.50;;
21258;SDS011;10787;53.364;-1.480;2023-11-21T12:00:06;4.93;;;1.57;;
21258;SDS011;10787;53.364;-1.480;2023-11-21T12:03:14;4.53;;;1.50;;
21258;SDS011;10787;53.364;-1.480;2023-11-21T12:06:00;4.03;;;1.50;;
21258;SDS011;10787;53.364;-1.480;2023-11-21T12:08:45;4.88;;;1.70;;
21258;SDS011;10787;53.364;-1.480;2023-11-21T12:11:31;5.97;;;1.90;;
21258;SDS011;10787;53.364;-1.480;2023-11-21T12:14:15;7.20;;;1.50;;
21258;SDS011;10787;53.364;-1.480;2023-11-21T12:17:00;8.25;;;1.75;;
21258;SDS011;10787;53.364;-1.480;2023-11-21T12:19:46;5.07;;;1.73;;
21258;SDS011;10787;53.364;-1.480;2023-11-21T12:22:30;5.60;;;1.55;;
21258;SDS011;10787;53.364;-1.480;2023-11-21T12:28:03;4.40;;;1.40;;
21258;SDS011;10787;53.364;-1.480;2023-11-21T12:30:47;3.95;;;1.40;;
21258;SDS011;10787;53.364;-1.480;2023-11-21T12:33:32;7.50;;;1.80;;
21258;SDS011;10787;53.364;-1.480;2023-11-21T12:36:16;3.85;;;1.70;;
21258;SDS011;10787;53.364;-1.480;2023-11-21T12:39:00;7.07;;;1.77;;
21258;SDS011;10787;53.364;-1.480;2023-11-21T12:41:46;4.65;;;2.13;;
21258;SDS011;10787;53.364;-1.480;2023-11-21T12:44:31;3.72;;;1.77;;
21258;SDS011;10787;53.364;-1.480;2023-11-21T12:47:16;3.95;;;1.70;;
21258;SDS011;10787;53.364;-1.480;2023-11-21T12:50:02;6.00;;;1.83;;
21258;SDS011;10787;53.364;-1.480;2023-11-21T12:52:59;4.88;;;1.90;;
21258;SDS011;10787;53.364;-1.480;2023-11-21T12:55:52;5.55;;;2.03;;
21258;SDS011;10787;53.364;-1.480;2023-11-21T12:58:44;5.95;;;1.90;;
21258;SDS011;10787;53.364;-1.480;2023-11-21T13:01:31;8.18;;;2.05;;
21258;SDS011;10787;53.364;-1.480;2023-11-21T13:04:15;4.05;;;1.67;;
21258;SDS011;10787;53.364;-1.480;2023-11-21T13:07:03;6.07;;;2.22;;
21258;SDS011;10787;53.364;-1.480;2023-11-21T13:09:58;6.47;;;2.20;;
21258;SDS011;10787;53.364;-1.480;2023-11-21T13:12:43;7.30;;;2.40;;
21258;SDS011;10787;53.364;-1.480;2023-11-21T13:15:31;7.13;;;2.00;;
21258;SDS011;10787;53.364;-1.480;2023-11-21T13:18:16;19.00;;;3.08;;
21258;SDS011;10787;53.364;-1.480;2023-11-21T13:21:02;5.55;;;2.08;;
21258;SDS011;10787;53.364;-1.480;2023-11-21T13:23:56;7.32;;;2.00;;
21258;SDS011;10787;53.364;-1.480;2023-11-21T13:26:40;6.72;;;1.90;;
21258;SDS011;10787;53.364;-1.480;2023-11-21T13:29:25;4.43;;;1.70;;
21258;SDS011;10787;53.364;-1.480;2023-11-21T13:32:09;3.87;;;1.57;;
21258;SDS011;10787;53.364;-1.480;2023-11-21T13:34:55;3.42;;;1.70;;
21258;SDS011;10787;53.364;-1.480;2023-11-21T13:37:39;4.57;;;1.50;;
21258;SDS011;10787;53.364;-1.480;2023-11-21T13:40:24;5.57;;;1.42;;
21258;SDS011;10787;53.364;-1.480;2023-11-21T13:43:15;4.63;;;1.63;;
21258;SDS011;10787;53.364;-1.480;2023-11-21T13:46:02;7.13;;;1.63;;
21258;SDS011;10787;53.364;-1.480;2023-11-21T13:48:57;4.20;;;1.60;;
21258;SDS011;10787;53.364;-1.480;2023-11-21T13:51:41;4.32;;;1.55;;
21258;SDS011;10787;53.364;-1.480;2023-11-21T13:54:27;4.22;;;1.60;;
21258;SDS011;10787;53.364;-1.480;2023-11-21T13:57:13;6.60;;;1.80;;
21258;SDS011;10787;53.364;-1.480;2023-11-21T13:59:57;5.28;;;1.80;;
21258;SDS011;10787;53.364;-1.480;2023-11-21T14:02:43;5.15;;;1.92;;
21258;SDS011;10787;53.364;-1.480;2023-11-21T14:05:28;5.68;;;1.75;;
21258;SDS011;10787;53.364;-1.480;2023-11-21T14:08:14;4.32;;;2.33;;
21258;SDS011;10787;53.364;-1.480;2023-11-21T14:11:03;4.80;;;2.15;;
21258;SDS011;10787;53.364;-1.480;2023-11-21T14:13:50;5.43;;;1.60;;
21258;SDS011;10787;53.364;-1.480;2023-11-21T14:16:34;3.25;;;1.73;;
21258;SDS011;10787;53.364;-1.480;2023-11-21T14:19:18;7.40;;;1.80;;
21258;SDS011;10787;53.364;-1.480;2023-11-21T14:22:03;3.05;;;1.67;;
21258;SDS011;10787;53.364;-1.480;2023-11-21T14:24:47;7.07;;;1.73;;
21258;SDS011;10787;53.364;-1.480;2023-11-21T14:27:33;4.82;;;1.50;;
21258;SDS011;10787;53.364;-1.480;2023-11-21T14:30:18;5.45;;;1.42;;
21258;SDS011;10787;53.364;-1.480;2023-11-21T14:33:05;3.95;;;1.45;;
21258;SDS011;10787;53.364;-1.480;2023-11-21T14:35:51;2.72;;;1.33;;
21258;SDS011;10787;53.364;-1.480;2023-11-21T14:38:36;3.60;;;1.20;;
21258;SDS011;10787;53.364;-1.480;2023-11-21T14:41:23;4.07;;;1.70;;
21258;SDS011;10787;53.364;-1.480;2023-11-21T14:44:11;3.67;;;1.53;;
21258;SDS011;10787;53.364;-1.480;2023-11-21T14:46:56;3.77;;;1.50;;
21258;SDS011;10787;53.364;-1.480;2023-11-21T14:49:43;3.13;;;1.20;;
21258;SDS011;10787;53.364;-1.480;2023-11-21T14:52:37;4.17;;;1.40;;
21258;SDS011;10787;53.364;-1.480;2023-11-21T14:55:36;3.27;;;1.30;;
21258;SDS011;10787;53.364;-1.480;2023-11-21T14:58:35;2.60;;;1.27;;
21258;SDS011;10787;53.364;-1.480;2023-11-21T15:01:23;4.90;;;1.50;;
21258;SDS011;10787;53.364;-1.480;2023-11-21T15:04:19;3.50;;;1.10;;
21258;SDS011;10787;53.364;-1.480;2023-11-21T15:07:19;2.97;;;1.20;;
21258;SDS011;10787;53.364;-1.480;2023-11-21T15:10:03;3.90;;;1.20;;
21258;SDS011;10787;53.364;-1.480;2023-11-21T15:12:52;3.97;;;1.30;;
21258;SDS011;10787;53.364;-1.480;2023-11-21T15:15:36;4.80;;;1.60;;
21258;SDS011;10787;53.364;-1.480;2023-11-21T15:18:22;5.00;;;1.60;;
21258;SDS011;10787;53.364;-1.480;2023-11-21T15:21:08;4.17;;;2.07;;
21258;SDS011;10787;53.364;-1.480;2023-11-21T15:23:55;5.20;;;1.90;;
21258;SDS011;10787;53.364;-1.480;2023-11-21T15:26:39;5.03;;;1.80;;
21258;SDS011;10787;53.364;-1.480;2023-11-21T15:29:23;5.03;;;2.00;;
21258;SDS011;10787;53.364;-1.480;2023-11-21T15:32:09;5.43;;;1.57;;
21258;SDS011;10787;53.364;-1.480;2023-11-21T15:34:54;4.07;;;1.90;;
21258;SDS011;10787;53.364;-1.480;2023-11-21T15:37:38;6.57;;;1.90;;
21258;SDS011;10787;53.364;-1.480;2023-11-21T15:40:22;7.17;;;1.80;;
21258;SDS011;10787;53.364;-1.480;2023-11-21T15:43:07;4.80;;;1.70;;
21258;SDS011;10787;53.364;-1.480;2023-11-21T15:45:51;4.10;;;1.70;;
21258;SDS011;10787;53.364;-1.480;2023-11-21T15:48:36;5.00;;;1.70;;
21258;SDS011;10787;53.364;-1.480;2023-11-21T15:51:24;4.13;;;1.60;;
21258;SDS011;10787;53.364;-1.480;2023-11-21T15:54:08;5.50;;;1.57;;
21258;SDS011;10787;53.364;-1.480;2023-11-21T15:56:53;5.20;;;1.67;;
21258;SDS011;10787;53.364;-1.480;2023-11-21T15:59:43;4.63;;;1.53;;
21258;SDS011;10787;53.364;-1.480;2023-11-21T16:02:29;5.03;;;1.50;;
21258;SDS011;10787;53.364;-1.480;2023-11-21T16:05:14;3.23;;;1.40;;
21258;SDS011;10787;53.364;-1.480;2023-11-21T16:08:00;4.57;;;1.57;;
21258;SDS011;10787;53.364;-1.480;2023-11-21T16:10:44;5.07;;;1.80;;
21258;SDS011;10787;53.364;-1.480;2023-11-21T16:13:29;6.80;;;1.70;;
21258;SDS011;10787;53.364;-1.480;2023-11-21T16:16:13;5.50;;;1.83;;
21258;SDS011;10787;53.364;-1.480;2023-11-21T16:18:59;6.93;;;1.70;;
21258;SDS011;10787;53.364;-1.480;2023-11-21T16:21:47;5.87;;;1.93;;
21258;SDS011;10787;53.364;-1.480;2023-11-21T16:24:31;6.10;;;1.97;;
21258;SDS011;10787;53.364;-1.480;2023-11-21T16:27:17;7.53;;;2.00;;
21258;SDS011;10787;53.364;-1.480;2023-11-21T16:30:03;4.57;;;1.90;;
21258;SDS011;10787;53.364;-1.480;2023-11-21T16:32:48;4.70;;;2.30;;